createdAt,value
2018-03-30T00:00:01.802Z,7.90
2018-03-30T00:02:32.791Z,7.57
2018-03-30T00:05:03.579Z,10.07
2018-03-30T00:07:34.485Z,7.27
2018-03-30T00:10:06.471Z,9.27
2018-03-30T00:12:37.791Z,9.03
2018-03-30T00:15:08.824Z,5.97
2018-03-30T00:17:38.975Z,7.20
2018-03-30T00:20:11.196Z,8.20
2018-03-30T00:22:42.764Z,8.53
2018-03-30T00:25:13.509Z,11.07
2018-03-30T00:27:44.583Z,7.83
2018-03-30T00:30:15.871Z,8.20
2018-03-30T00:32:46.744Z,7.03
2018-03-30T00:35:18.509Z,8.40
2018-03-30T00:37:49.561Z,7.00
2018-03-30T00:40:20.678Z,6.43
2018-03-30T00:42:51.920Z,8.17
2018-03-30T00:45:23.246Z,9.27
2018-03-30T00:47:54.170Z,6.57
2018-03-30T00:50:25.202Z,6.83
2018-03-30T00:52:56.234Z,7.03
2018-03-30T00:55:27.236Z,7.97
2018-03-30T00:57:58.223Z,7.40
2018-03-30T01:00:29.469Z,7.30
2018-03-30T01:03:01.003Z,8.13
2018-03-30T01:05:31.461Z,8.50
2018-03-30T01:08:02.802Z,9.00
2018-03-30T01:10:34.882Z,7.37
2018-03-30T01:13:06.600Z,6.77
2018-03-30T01:15:38.021Z,7.63
2018-03-30T01:18:23.882Z,6.63
2018-03-30T01:20:55.459Z,9.47
2018-03-30T01:23:26.304Z,7.87
2018-03-30T01:25:57.732Z,7.80
2018-03-30T01:28:28.715Z,7.50
2018-03-30T01:31:00.749Z,7.03
2018-03-30T01:33:32.316Z,7.30
2018-03-30T01:36:03.978Z,8.03
2018-03-30T01:38:35.227Z,7.13
2018-03-30T01:41:06.177Z,6.23
2018-03-30T01:43:39.180Z,7.67
2018-03-30T01:46:10.753Z,7.37
2018-03-30T01:48:42.126Z,9.23
2018-03-30T01:51:13.737Z,9.90
2018-03-30T01:53:44.591Z,9.20
2018-03-30T01:56:16.195Z,7.93
2018-03-30T01:58:47.404Z,7.77
2018-03-30T02:01:19.905Z,10.87
2018-03-30T02:03:51.106Z,8.23
2018-03-30T02:06:22.568Z,9.40
2018-03-30T02:08:54.030Z,11.10
2018-03-30T02:11:25.643Z,10.03
2018-03-30T02:13:56.455Z,12.67
2018-03-30T02:16:27.622Z,10.37
2018-03-30T02:19:00.333Z,10.67
2018-03-30T02:21:32.495Z,8.60
2018-03-30T02:24:03.844Z,12.33
2018-03-30T02:26:35.418Z,8.67
2018-03-30T02:29:06.945Z,9.93
2018-03-30T02:31:38.076Z,8.83
2018-03-30T02:34:10.115Z,10.03
2018-03-30T02:36:41.559Z,7.63
2018-03-30T02:39:13.474Z,11.67
2018-03-30T02:41:44.178Z,11.43
2018-03-30T02:44:15.318Z,9.60
2018-03-30T02:46:46.243Z,9.47
2018-03-30T02:49:17.034Z,8.67
2018-03-30T02:51:48.779Z,11.13
2018-03-30T02:54:20.228Z,10.20
2018-03-30T02:56:52.660Z,9.13
2018-03-30T02:59:24.740Z,9.03
2018-03-30T03:01:56.423Z,13.20
2018-03-30T03:04:27.641Z,10.30
2018-03-30T03:06:58.973Z,10.97
2018-03-30T03:09:30.785Z,10.17
2018-03-30T03:12:02.885Z,12.20
2018-03-30T03:14:34.603Z,11.47
2018-03-30T03:17:05.927Z,12.60
2018-03-30T03:19:37.445Z,13.10
2018-03-30T03:22:09.022Z,11.50
2018-03-30T03:24:41.041Z,10.50
2018-03-30T03:27:13.242Z,10.80
2018-03-30T03:29:44.592Z,11.37
2018-03-30T03:32:16.266Z,12.03
2018-03-30T03:34:48.015Z,11.47
2018-03-30T03:37:20.990Z,9.57
2018-03-30T03:39:53.803Z,11.00
2018-03-30T03:42:25.479Z,14.87
2018-03-30T03:44:56.996Z,12.70
2018-03-30T03:47:28.583Z,11.77
2018-03-30T03:49:59.859Z,12.53
2018-03-30T03:52:31.165Z,12.20
2018-03-30T03:55:02.782Z,13.53
2018-03-30T03:57:34.598Z,11.03
2018-03-30T04:00:05.854Z,11.17
2018-03-30T04:02:37.354Z,13.80
2018-03-30T04:05:08.749Z,13.10
2018-03-30T04:07:39.373Z,12.87
2018-03-30T04:10:14.540Z,11.30
2018-03-30T04:12:48.034Z,14.60
2018-03-30T04:15:19.418Z,14.20
2018-03-30T04:17:51.510Z,14.30
2018-03-30T04:20:22.761Z,10.53
2018-03-30T04:22:53.984Z,13.83
2018-03-30T04:25:24.916Z,13.57
2018-03-30T04:27:56.274Z,11.73
2018-03-30T04:30:27.295Z,12.77
2018-03-30T04:32:58.448Z,14.27
2018-03-30T04:35:29.434Z,12.80
2018-03-30T04:38:02.162Z,13.87
2018-03-30T04:40:33.385Z,13.97
2018-03-30T04:43:05.595Z,14.83
2018-03-30T04:45:37.544Z,15.13
2018-03-30T04:48:08.775Z,15.10
2018-03-30T04:50:40.275Z,13.13
2018-03-30T04:53:11.864Z,15.37
2018-03-30T04:55:42.944Z,16.77
2018-03-30T04:58:14.421Z,15.53
2018-03-30T05:00:50.307Z,15.47
2018-03-30T05:03:21.720Z,15.73
2018-03-30T05:05:53.159Z,16.47
2018-03-30T05:08:24.710Z,17.07
2018-03-30T05:10:56.270Z,16.63
2018-03-30T05:13:27.671Z,16.63
2018-03-30T05:15:59.127Z,16.20
2018-03-30T05:18:30.931Z,16.90
2018-03-30T05:21:02.276Z,18.07
2018-03-30T05:23:33.511Z,17.40
2018-03-30T05:26:04.956Z,19.30
2018-03-30T05:28:36.477Z,19.17
2018-03-30T05:31:09.241Z,16.33
2018-03-30T05:33:40.859Z,17.60
2018-03-30T05:36:12.467Z,17.53
2018-03-30T05:38:44.525Z,17.53
2018-03-30T05:41:15.950Z,17.17
2018-03-30T05:43:47.263Z,18.17
2018-03-30T05:46:19.166Z,16.77
2018-03-30T05:48:50.956Z,18.40
2018-03-30T05:51:22.561Z,17.93
2018-03-30T05:53:53.704Z,15.47
2018-03-30T05:56:25.205Z,26.63
2018-03-30T05:58:56.810Z,64.83
2018-03-30T06:01:28.220Z,38.00
2018-03-30T06:03:59.090Z,22.07
2018-03-30T06:06:30.528Z,23.17
2018-03-30T06:09:02.137Z,15.97
2018-03-30T06:11:33.591Z,17.57
2018-03-30T06:14:04.587Z,17.13
2018-03-30T06:16:35.288Z,17.43
2018-03-30T06:19:07.082Z,17.23
2018-03-30T06:21:38.310Z,15.90
2018-03-30T06:24:09.535Z,14.93
2018-03-30T06:26:41.144Z,15.20
2018-03-30T06:29:12.396Z,14.93
2018-03-30T06:31:44.696Z,14.43
2018-03-30T06:34:15.927Z,14.27
2018-03-30T06:36:47.057Z,13.63
2018-03-30T06:39:18.205Z,15.40
2018-03-30T06:41:50.080Z,14.47
2018-03-30T06:44:21.415Z,12.60
2018-03-30T06:46:52.199Z,13.13
2018-03-30T06:49:23.318Z,14.60
2018-03-30T06:51:54.112Z,11.67
2018-03-30T06:54:25.151Z,11.80
2018-03-30T06:56:55.718Z,10.20
2018-03-30T06:59:26.512Z,12.00
2018-03-30T07:01:57.211Z,10.50
2018-03-30T07:04:27.647Z,12.03
2018-03-30T07:06:57.616Z,10.30
2018-03-30T07:09:28.082Z,11.07
2018-03-30T07:11:58.855Z,9.80
2018-03-30T07:14:29.112Z,10.87
2018-03-30T07:16:59.553Z,10.93
2018-03-30T07:19:30.705Z,10.07
2018-03-30T07:22:01.112Z,10.57
2018-03-30T07:24:32.830Z,11.00
2018-03-30T07:27:03.696Z,11.57
2018-03-30T07:29:34.895Z,11.33
2018-03-30T07:32:14.548Z,12.17
2018-03-30T07:34:45.799Z,12.57
2018-03-30T07:37:16.732Z,11.17
2018-03-30T07:39:49.231Z,12.00
2018-03-30T07:42:24.865Z,10.83
2018-03-30T07:45:03.767Z,10.60
2018-03-30T07:47:35.386Z,10.97
2018-03-30T07:50:12.193Z,15.53
2018-03-30T07:52:43.289Z,9.53
2018-03-30T07:55:15.027Z,10.63
2018-03-30T07:57:46.671Z,13.03
2018-03-30T08:00:19.347Z,12.20
2018-03-30T08:02:50.438Z,10.00
2018-03-30T08:05:21.795Z,10.00
2018-03-30T08:07:59.392Z,12.07
2018-03-30T08:10:30.191Z,9.57
2018-03-30T08:13:00.924Z,10.40
2018-03-30T08:15:31.724Z,10.37
2018-03-30T08:18:02.510Z,10.87
2018-03-30T08:20:33.517Z,12.10
2018-03-30T08:23:04.216Z,10.03
2018-03-30T08:25:34.753Z,9.27
2018-03-30T08:28:05.863Z,13.00
2018-03-30T08:30:37.578Z,9.33
2018-03-30T08:33:08.062Z,7.97
2018-03-30T08:35:39.039Z,8.90
2018-03-30T08:38:09.851Z,7.87
2018-03-30T08:40:40.493Z,9.27
2018-03-30T08:43:10.949Z,7.93
2018-03-30T08:45:41.525Z,8.87
2018-03-30T08:48:11.940Z,8.00
2018-03-30T08:50:42.412Z,8.13
2018-03-30T08:53:13.071Z,8.30
2018-03-30T08:55:43.514Z,9.63
2018-03-30T08:58:14.565Z,8.47
2018-03-30T09:00:46.531Z,9.43
2018-03-30T09:03:17.222Z,7.37
2018-03-30T09:05:48.015Z,8.10
2018-03-30T09:08:18.487Z,10.87
2018-03-30T09:10:49.030Z,8.57
2018-03-30T09:13:19.525Z,10.23
2018-03-30T09:15:50.377Z,7.97
2018-03-30T09:18:20.844Z,10.90
2018-03-30T09:20:51.207Z,8.23
2018-03-30T09:23:21.690Z,8.73
2018-03-30T09:25:52.154Z,7.60
2018-03-30T09:28:22.465Z,8.50
2018-03-30T09:30:53.368Z,7.47
2018-03-30T09:33:28.266Z,7.87
2018-03-30T09:35:59.028Z,7.73
2018-03-30T09:38:29.621Z,8.53
2018-03-30T09:41:00.806Z,7.80
2018-03-30T09:43:31.264Z,7.80
2018-03-30T09:46:02.341Z,8.03
2018-03-30T09:48:32.997Z,9.27
2018-03-30T09:51:03.899Z,8.07
2018-03-30T09:53:34.428Z,7.17
2018-03-30T09:56:05.097Z,8.03
2018-03-30T09:58:35.182Z,7.77
2018-03-30T10:01:09.399Z,7.57
2018-03-30T10:03:40.913Z,8.00
2018-03-30T10:06:10.724Z,7.23
2018-03-30T10:08:41.153Z,7.67
2018-03-30T10:11:11.890Z,8.50
2018-03-30T10:13:41.979Z,7.17
2018-03-30T10:16:12.290Z,7.87
2018-03-30T10:18:42.861Z,8.07
2018-03-30T10:21:12.953Z,7.50
2018-03-30T10:23:43.531Z,7.43
2018-03-30T10:26:14.385Z,7.70
2018-03-30T10:28:44.968Z,6.87
2018-03-30T10:31:15.819Z,7.50
2018-03-30T10:33:46.398Z,7.53
2018-03-30T10:36:16.903Z,6.77
2018-03-30T10:38:47.320Z,7.37
2018-03-30T10:41:17.850Z,6.17
2018-03-30T10:43:47.880Z,7.57
2018-03-30T10:46:18.308Z,6.43
2018-03-30T10:48:48.841Z,6.17
2018-03-30T10:51:19.580Z,5.97
2018-03-30T10:53:50.041Z,6.97
2018-03-30T10:56:20.910Z,6.50
2018-03-30T10:58:51.856Z,9.17
2018-03-30T11:01:23.405Z,6.97
2018-03-30T11:03:53.913Z,6.40
2018-03-30T11:06:24.528Z,7.07
2018-03-30T11:08:54.601Z,8.93
2018-03-30T11:11:25.477Z,6.63
2018-03-30T11:13:56.298Z,6.20
2018-03-30T11:16:27.484Z,6.00
2018-03-30T11:18:58.742Z,5.23
2018-03-30T11:21:30.206Z,5.03
2018-03-30T11:24:00.657Z,4.27
2018-03-30T11:26:31.078Z,5.27
2018-03-30T11:29:01.463Z,4.23
2018-03-30T11:31:31.729Z,5.47
2018-03-30T11:34:01.976Z,5.53
2018-03-30T11:36:31.832Z,5.33
2018-03-30T11:39:02.183Z,4.43
2018-03-30T11:41:32.520Z,6.53
2018-03-30T11:44:02.786Z,5.03
2018-03-30T11:46:33.405Z,7.80
2018-03-30T11:49:04.044Z,6.07
2018-03-30T11:51:34.754Z,8.23
2018-03-30T11:54:05.337Z,5.17
2018-03-30T11:56:36.786Z,4.70
2018-03-30T11:59:07.228Z,5.57
2018-03-30T12:01:37.752Z,5.50
2018-03-30T12:04:08.266Z,6.40
2018-03-30T12:06:38.973Z,6.57
2018-03-30T12:09:10.790Z,6.60
2018-03-30T12:11:41.254Z,6.27
2018-03-30T12:14:12.896Z,7.60
2018-03-30T12:16:44.708Z,6.43
2018-03-30T12:19:15.562Z,5.20
2018-03-30T12:21:46.542Z,4.93
2018-03-30T12:24:17.330Z,5.13
2018-03-30T12:26:47.480Z,5.80
2018-03-30T12:29:18.084Z,6.53
2018-03-30T12:31:48.962Z,13.10
2018-03-30T12:34:19.787Z,4.07
2018-03-30T12:36:51.284Z,6.77
2018-03-30T12:39:22.150Z,11.20
2018-03-30T12:41:53.223Z,7.03
2018-03-30T12:44:24.228Z,8.67
2018-03-30T12:46:55.130Z,6.57
2018-03-30T12:49:25.816Z,7.67
2018-03-30T12:51:57.440Z,6.03
2018-03-30T12:56:59.658Z,9.47
2018-03-30T12:59:30.518Z,6.80
2018-03-30T13:02:01.589Z,9.23
2018-03-30T13:04:31.847Z,6.97
2018-03-30T13:07:02.820Z,4.77
2018-03-30T13:09:33.158Z,5.40
2018-03-30T13:12:03.919Z,12.93
2018-03-30T13:14:36.415Z,7.90
2018-03-30T13:17:06.728Z,6.93
2018-03-30T13:19:37.080Z,8.27
2018-03-30T13:22:07.716Z,5.67
2018-03-30T13:24:38.016Z,8.88
2018-03-30T13:27:08.609Z,8.07
2018-03-30T13:29:39.642Z,8.50
2018-03-30T13:32:10.026Z,10.73
2018-03-30T13:34:40.359Z,10.57
2018-03-30T13:37:10.558Z,8.13
2018-03-30T13:39:40.992Z,5.10
2018-03-30T13:42:11.051Z,11.07
2018-03-30T13:44:41.546Z,14.33
2018-03-30T13:47:13.980Z,11.23
2018-03-30T13:49:44.623Z,10.83
2018-03-30T13:52:15.517Z,13.27
2018-03-30T13:54:46.272Z,11.03
2018-03-30T13:57:17.074Z,8.33
2018-03-30T13:59:47.543Z,10.07
2018-03-30T14:02:17.759Z,7.90
2018-03-30T14:04:48.254Z,7.93
2018-03-30T14:07:18.677Z,6.53
2018-03-30T14:09:49.160Z,4.90
2018-03-30T14:12:20.087Z,7.10
2018-03-30T14:14:50.497Z,10.40
2018-03-30T14:17:21.990Z,8.50
2018-03-30T14:19:52.901Z,8.70
2018-03-30T14:22:23.816Z,6.87
2018-03-30T14:24:54.342Z,8.07
2018-03-30T14:27:25.330Z,9.37
2018-03-30T14:29:55.972Z,13.50
2018-03-30T14:32:26.479Z,8.03
2018-03-30T14:34:57.064Z,16.60
2018-03-30T14:37:27.485Z,14.37
2018-03-30T14:39:58.246Z,6.60
2018-03-30T14:42:28.779Z,6.33
2018-03-30T14:45:13.914Z,4.80
2018-03-30T14:47:44.631Z,2.57
2018-03-30T14:50:15.066Z,3.17
2018-03-30T14:52:45.589Z,3.30
2018-03-30T14:55:16.318Z,3.23
2018-03-30T14:57:47.555Z,7.17
2018-03-30T15:00:17.639Z,3.00
2018-03-30T15:02:47.815Z,4.80
2018-03-30T15:05:19.160Z,3.17
2018-03-30T15:07:50.666Z,4.70
2018-03-30T15:10:21.854Z,3.83
2018-03-30T15:12:52.450Z,2.57
2018-03-30T15:15:22.968Z,3.77
2018-03-30T15:17:53.709Z,3.43
2018-03-30T15:20:24.636Z,4.50
2018-03-30T15:22:55.876Z,4.77
2018-03-30T15:25:26.433Z,5.70
2018-03-30T15:27:57.043Z,15.63
2018-03-30T15:30:27.748Z,5.77
2018-03-30T15:32:58.389Z,4.90
2018-03-30T15:35:28.944Z,4.20
2018-03-30T15:37:59.369Z,2.80
2018-03-30T15:40:29.824Z,3.93
2018-03-30T15:43:02.057Z,4.17
2018-03-30T15:45:32.504Z,5.47
2018-03-30T15:48:03.235Z,4.53
2018-03-30T15:50:33.729Z,4.73
2018-03-30T15:53:04.624Z,6.77
2018-03-30T15:55:35.032Z,5.17
2018-03-30T15:58:05.669Z,6.10
2018-03-30T16:00:36.117Z,5.47
2018-03-30T16:03:06.679Z,4.80
2018-03-30T16:05:37.065Z,4.63
2018-03-30T16:08:13.724Z,5.93
2018-03-30T16:10:44.334Z,4.80
2018-03-30T16:13:14.989Z,4.63
2018-03-30T16:15:45.355Z,5.83
2018-03-30T16:18:16.209Z,6.23
2018-03-30T16:20:45.395Z,7.70
2018-03-30T16:23:14.455Z,10.50
2018-03-30T16:25:43.635Z,6.97
2018-03-30T16:28:12.715Z,5.97
2018-03-30T16:30:41.932Z,6.47
2018-03-30T16:33:10.937Z,4.83
2018-03-30T16:35:40.001Z,4.37
2018-03-30T16:38:09.228Z,6.37
2018-03-30T16:40:38.366Z,6.60
2018-03-30T16:43:07.604Z,5.17
2018-03-30T16:45:36.686Z,6.97
2018-03-30T16:48:05.911Z,6.63
2018-03-30T16:50:35.136Z,5.30
2018-03-30T16:53:04.294Z,5.03
2018-03-30T16:55:33.421Z,6.27
2018-03-30T16:58:02.511Z,4.47
2018-03-30T17:00:31.729Z,5.37
2018-03-30T17:03:00.766Z,4.40
2018-03-30T17:05:29.880Z,4.80
2018-03-30T17:07:58.957Z,4.80
2018-03-30T17:10:27.933Z,7.97
2018-03-30T17:12:56.996Z,12.20
2018-03-30T17:15:26.142Z,6.90
2018-03-30T17:17:55.210Z,6.30
2018-03-30T17:20:24.217Z,4.67
2018-03-30T17:22:52.879Z,3.70
2018-03-30T17:25:22.358Z,4.30
2018-03-30T17:27:51.451Z,4.63
2018-03-30T17:30:20.548Z,3.93
2018-03-30T17:32:50.616Z,4.40
2018-03-30T17:35:19.661Z,5.57
2018-03-30T17:37:48.820Z,4.47
2018-03-30T17:40:18.018Z,3.80
2018-03-30T17:42:47.032Z,4.17
2018-03-30T17:45:16.143Z,3.57
2018-03-30T17:47:45.259Z,3.17
2018-03-30T17:50:14.338Z,7.53
2018-03-30T17:52:43.360Z,8.40
2018-03-30T17:55:12.453Z,3.77
2018-03-30T17:57:41.539Z,4.37
2018-03-30T18:00:10.592Z,3.40
2018-03-30T18:02:39.616Z,1.97
2018-03-30T18:05:08.735Z,3.23
2018-03-30T18:07:37.799Z,2.47
2018-03-30T18:10:06.932Z,3.17
2018-03-30T18:12:36.003Z,2.20
2018-03-30T18:15:05.101Z,3.13
2018-03-30T18:17:34.184Z,1.93
2018-03-30T18:20:03.353Z,2.23
2018-03-30T18:22:34.158Z,3.73
2018-03-30T18:25:03.303Z,4.93
2018-03-30T18:27:32.392Z,3.77
2018-03-30T18:30:01.732Z,3.10
2018-03-30T18:32:31.033Z,4.00
2018-03-30T18:35:04.512Z,3.63
2018-03-30T18:37:33.622Z,3.80
2018-03-30T18:40:02.778Z,5.33
2018-03-30T18:42:37.566Z,2.83
2018-03-30T18:45:06.863Z,3.07
2018-03-30T18:47:35.730Z,4.47
2018-03-30T18:50:05.007Z,4.07
2018-03-30T18:52:34.089Z,2.93
2018-03-30T18:55:03.833Z,3.87
2018-03-30T18:57:34.084Z,3.83
2018-03-30T19:00:03.885Z,3.27
2018-03-30T19:02:33.004Z,4.07
2018-03-30T19:05:02.517Z,4.10
2018-03-30T19:07:32.438Z,6.03
2018-03-30T19:10:02.077Z,3.87
2018-03-30T19:21:33.402Z,5.23
2018-03-30T19:24:02.942Z,4.20
2018-03-30T19:26:32.007Z,4.60
2018-03-30T19:29:01.295Z,4.40
2018-03-30T19:31:30.483Z,4.30
2018-03-30T19:33:59.577Z,5.73
2018-03-30T19:36:28.350Z,4.37
2018-03-30T19:38:57.454Z,4.57
2018-03-30T19:41:26.658Z,4.37
2018-03-30T19:43:56.588Z,4.03
2018-03-30T19:46:25.369Z,5.93
2018-03-30T19:57:57.903Z,3.63
2018-03-30T20:00:27.145Z,3.67
2018-03-30T20:02:56.265Z,3.43
2018-03-30T20:05:25.313Z,3.57
2018-03-30T20:16:56.701Z,3.13
2018-03-30T20:19:25.856Z,2.97
2018-03-30T20:33:45.173Z,2.27
2018-03-30T20:54:18.664Z,2.23
2018-03-30T20:56:47.759Z,2.40
2018-03-30T20:59:16.812Z,1.53
2018-03-30T21:01:45.741Z,1.53
2018-03-30T21:04:15.665Z,1.90
2018-03-30T21:06:47.693Z,1.43
2018-03-30T21:09:16.663Z,1.50
2018-03-30T21:11:45.669Z,2.07
2018-03-30T21:14:15.349Z,2.67
2018-03-30T21:16:44.520Z,1.97
2018-03-30T21:19:14.235Z,2.97
2018-03-30T21:21:43.604Z,2.23
2018-03-30T21:24:12.277Z,1.97
2018-03-30T21:26:41.314Z,2.07
2018-03-30T21:29:10.466Z,2.67
2018-03-30T21:31:39.478Z,2.13
2018-03-30T21:34:08.253Z,1.80
2018-03-30T21:36:37.327Z,3.57
2018-03-30T21:39:06.347Z,2.20
2018-03-30T21:41:35.011Z,2.47
2018-03-30T21:44:04.321Z,2.40
2018-03-30T21:46:33.403Z,4.63
2018-03-30T21:49:03.226Z,4.20
2018-03-30T21:51:31.890Z,4.40
2018-03-30T21:54:00.914Z,3.97
2018-03-30T21:56:30.908Z,4.30
2018-03-30T21:58:59.904Z,5.00
2018-03-30T22:01:29.790Z,3.20
2018-03-30T22:03:59.079Z,4.70
2018-03-30T22:06:29.167Z,3.10
2018-03-30T22:08:58.942Z,2.87
2018-03-30T22:11:27.993Z,3.07
2018-03-30T22:13:57.249Z,2.93
2018-03-30T22:16:26.433Z,4.10
2018-03-30T22:18:55.473Z,2.80
2018-03-30T22:21:24.636Z,3.80
2018-03-30T22:23:53.802Z,2.87
2018-03-30T22:26:24.852Z,3.73
2018-03-30T22:28:53.967Z,4.00
2018-03-30T22:31:23.173Z,3.23
2018-03-30T22:33:52.340Z,3.30
2018-03-30T22:36:21.473Z,3.83
2018-03-30T22:38:50.536Z,3.10
2018-03-30T22:41:19.546Z,3.60
2018-03-30T22:43:49.402Z,3.93
2018-03-30T22:46:18.837Z,4.07
2018-03-30T22:48:47.924Z,4.47
2018-03-30T22:51:17.952Z,4.30
2018-03-30T22:53:46.968Z,6.60
2018-03-30T22:56:15.238Z,5.97
2018-03-30T22:58:44.516Z,6.77
2018-03-30T23:01:13.874Z,5.40
2018-03-30T23:03:42.931Z,4.50
2018-03-30T23:06:13.017Z,5.43
2018-03-30T23:08:43.887Z,5.43
2018-03-30T23:11:12.933Z,6.00
2018-03-30T23:13:42.004Z,4.93
2018-03-30T23:16:11.218Z,6.00
2018-03-30T23:18:43.233Z,6.67
2018-03-30T23:21:13.313Z,6.13
2018-03-30T23:23:42.847Z,7.17
2018-03-30T23:26:11.800Z,8.10
2018-03-30T23:28:41.891Z,7.93
2018-03-30T23:31:11.123Z,9.07
2018-03-30T23:33:40.238Z,8.13
2018-03-30T23:36:11.010Z,7.77
2018-03-30T23:38:39.862Z,8.90
2018-03-30T23:41:09.037Z,8.87
2018-03-30T23:43:38.578Z,8.63
2018-03-30T23:46:07.889Z,7.23
2018-03-30T23:48:37.131Z,8.00
2018-03-30T23:51:06.513Z,6.03
2018-03-30T23:53:36.189Z,6.30
2018-03-30T23:56:05.334Z,7.00
2018-03-30T23:58:34.469Z,6.13
